createdAt,value
2023-05-16T00:00:06.427Z,10.50
2023-05-16T01:00:04.176Z,10.20
2023-05-16T01:02:47.275Z,10.20
2023-05-16T01:05:43.936Z,10.10
2023-05-16T01:11:40.786Z,10.10
2023-05-16T01:14:27.963Z,10.10
2023-05-16T01:17:34.137Z,10.00
2023-05-16T01:33:13.632Z,9.90
2023-05-16T01:36:08.778Z,9.80
2023-05-16T01:42:10.003Z,9.80
2023-05-16T01:51:31.387Z,9.70
2023-05-16T01:54:31.486Z,9.70
2023-05-16T01:57:09.354Z,9.70
2023-05-16T01:59:56.938Z,9.70
2023-05-16T02:02:45.109Z,9.70
2023-05-16T02:05:45.597Z,9.60
2023-05-16T02:08:28.488Z,9.60
2023-05-16T02:43:47.234Z,9.50
2023-05-16T02:46:40.563Z,9.50
2023-05-16T02:49:31.407Z,9.50
2023-05-16T02:52:26.552Z,9.50
2023-05-16T02:55:23.846Z,9.50
2023-05-16T02:58:13.312Z,9.40
2023-05-16T03:00:53.231Z,9.40
2023-05-16T03:03:34.098Z,9.40
2023-05-16T03:06:16.731Z,9.40
2023-05-16T03:08:52.287Z,9.40
2023-05-16T03:11:33.139Z,9.40
2023-05-16T03:14:10.061Z,9.30
2023-05-16T03:16:48.366Z,9.30
2023-05-16T03:19:27.547Z,9.40
2023-05-16T03:22:02.728Z,9.30
2023-05-16T03:27:58.962Z,9.40
2023-05-16T03:30:46.185Z,9.40
2023-05-16T03:33:34.220Z,9.40
2023-05-16T03:36:13.603Z,9.40
2023-05-16T03:38:54.510Z,9.50
2023-05-16T03:41:51.355Z,9.50
2023-05-16T03:47:40.658Z,9.70
2023-05-16T03:50:41.162Z,9.80
2023-05-16T03:53:25.767Z,10.00
2023-05-16T03:56:01.591Z,10.10
2023-05-16T03:58:39.669Z,10.20
2023-05-16T04:01:22.484Z,10.20
2023-05-16T04:07:20.819Z,10.60
2023-05-16T04:10:00.227Z,10.80
2023-05-16T04:12:50.338Z,10.90
2023-05-16T04:15:36.326Z,11.00
2023-05-16T04:18:19.945Z,11.20
2023-05-16T04:21:16.142Z,11.40
2023-05-16T04:23:59.642Z,11.50
2023-05-16T04:26:36.099Z,11.70
2023-05-16T04:29:12.359Z,11.80
2023-05-16T04:31:51.434Z,12.00
2023-05-16T04:34:29.983Z,12.20
2023-05-16T05:14:29.753Z,15.00
2023-05-16T05:17:07.113Z,15.20
2023-05-16T05:19:44.250Z,15.40
2023-05-16T05:22:21.357Z,15.60
2023-05-16T05:25:01.102Z,15.70
2023-05-16T05:30:24.969Z,16.00
2023-05-16T05:33:13.096Z,16.10
2023-05-16T05:35:49.290Z,16.30
2023-05-16T05:38:28.955Z,16.40
2023-05-16T05:41:12.327Z,16.50
2023-05-16T05:43:49.412Z,16.70
2023-05-16T05:46:41.537Z,16.70
2023-05-16T05:49:25.177Z,16.90
2023-05-16T05:52:03.639Z,16.90
2023-05-16T05:54:39.895Z,17.10
2023-05-16T05:57:25.568Z,17.10
2023-05-16T06:00:05.607Z,17.10
2023-05-16T06:02:45.724Z,17.30
2023-05-16T06:05:27.291Z,17.50
2023-05-16T06:08:09.168Z,17.60
2023-05-16T06:10:44.668Z,17.70
2023-05-16T06:13:21.147Z,17.80
2023-05-16T06:15:57.311Z,17.90
2023-05-16T06:18:33.361Z,17.90
2023-05-16T06:21:15.981Z,18.10
2023-05-16T06:23:54.845Z,18.10
2023-05-16T06:26:30.792Z,18.10
2023-05-16T06:29:08.614Z,18.20
2023-05-16T06:31:52.612Z,18.20
2023-05-16T06:34:38.320Z,18.40
2023-05-16T06:37:17.379Z,18.50
2023-05-16T06:40:23.022Z,18.50
2023-05-16T06:42:59.522Z,18.60
2023-05-16T06:45:45.591Z,18.60
2023-05-16T06:48:23.424Z,18.60
2023-05-16T06:57:53.099Z,18.80
2023-05-16T07:01:13.145Z,19.00
2023-05-16T07:04:17.974Z,19.00
2023-05-16T07:07:20.139Z,19.20
2023-05-16T07:09:58.271Z,19.40
2023-05-16T07:12:51.473Z,19.50
2023-05-16T07:15:31.303Z,19.60
2023-05-16T07:18:09.515Z,19.90
2023-05-16T07:20:46.289Z,20.20
2023-05-16T07:23:23.311Z,20.40
2023-05-16T07:26:02.126Z,20.60
2023-05-16T07:28:46.837Z,20.60
2023-05-16T07:31:23.498Z,20.70
2023-05-16T07:34:04.174Z,20.80
2023-05-16T07:36:41.119Z,20.90
2023-05-16T07:39:17.239Z,21.00
2023-05-16T07:41:53.226Z,21.00
2023-05-16T07:44:36.273Z,20.80
2023-05-16T07:47:15.185Z,20.80
2023-05-16T07:49:53.179Z,21.00
2023-05-16T07:52:31.787Z,21.00
2023-05-16T07:55:12.972Z,21.00
2023-05-16T07:57:48.023Z,21.10
2023-05-16T08:00:30.120Z,21.40
2023-05-16T08:03:09.403Z,21.50
2023-05-16T08:05:49.725Z,21.60
2023-05-16T08:08:31.621Z,21.70
2023-05-16T08:11:09.944Z,21.70
2023-05-16T08:13:48.136Z,21.70
2023-05-16T08:16:27.797Z,21.40
2023-05-16T08:19:03.442Z,21.20
2023-05-16T08:21:38.357Z,21.00
2023-05-16T08:24:16.469Z,21.00
2023-05-16T08:26:56.618Z,21.10
2023-05-16T08:29:33.769Z,21.00
2023-05-16T08:32:15.119Z,20.80
2023-05-16T08:34:53.156Z,21.00
2023-05-16T08:37:31.121Z,21.30
2023-05-16T08:40:08.947Z,21.30
2023-05-16T08:42:46.662Z,21.20
2023-05-16T08:45:22.720Z,21.30
2023-05-16T08:48:03.477Z,21.60
2023-05-16T08:50:39.781Z,21.90
2023-05-16T08:53:17.351Z,21.70
2023-05-16T08:55:53.463Z,21.70
2023-05-16T08:58:30.526Z,21.60
2023-05-16T09:01:09.330Z,21.50
2023-05-16T09:03:51.381Z,21.20
2023-05-16T09:06:28.078Z,21.20
2023-05-16T09:09:09.252Z,21.50
2023-05-16T09:11:48.114Z,21.80
2023-05-16T09:14:24.433Z,22.00
2023-05-16T09:17:12.772Z,22.00
2023-05-16T09:19:53.441Z,22.10
2023-05-16T09:22:30.634Z,21.90
2023-05-16T09:25:12.716Z,22.10
2023-05-16T09:27:52.052Z,22.40
2023-05-16T09:30:28.452Z,22.70
2023-05-16T09:33:05.889Z,22.70
2023-05-16T09:35:50.981Z,22.70
2023-05-16T09:38:27.230Z,22.40
2023-05-16T09:41:03.992Z,22.10
2023-05-16T09:43:44.647Z,22.30
2023-05-16T09:46:24.670Z,22.60
2023-05-16T09:49:01.797Z,22.70
2023-05-16T09:51:40.868Z,22.80
2023-05-16T09:54:19.473Z,23.00
2023-05-16T09:57:09.523Z,23.20
2023-05-16T10:02:42.206Z,23.40
2023-05-16T10:05:20.864Z,23.20
2023-05-16T10:08:00.262Z,23.20
2023-05-16T10:10:40.910Z,23.30
2023-05-16T10:13:17.582Z,23.30
2023-05-16T10:15:53.465Z,23.20
2023-05-16T10:18:33.161Z,22.90
2023-05-16T10:21:11.777Z,22.70
2023-05-16T10:23:54.432Z,22.50
2023-05-16T10:26:33.026Z,22.40
2023-05-16T10:29:08.904Z,22.40
2023-05-16T10:31:48.917Z,22.60
2023-05-16T10:34:26.415Z,22.70
2023-05-16T10:37:02.625Z,22.60
2023-05-16T10:42:56.596Z,22.70
2023-05-16T10:49:00.314Z,22.80
2023-05-16T10:51:42.517Z,22.80
2023-05-16T10:54:43.757Z,22.90
2023-05-16T10:57:54.348Z,22.80
2023-05-16T11:00:54.879Z,22.70
2023-05-16T11:03:51.619Z,22.60
2023-05-16T11:07:02.404Z,22.50
2023-05-16T11:09:57.491Z,22.40
2023-05-16T11:24:38.996Z,21.90
2023-05-16T11:27:38.257Z,21.80
2023-05-16T11:30:25.240Z,21.60
2023-05-16T11:33:11.145Z,21.50
2023-05-16T11:38:45.006Z,21.50
2023-05-16T11:41:29.552Z,21.40
2023-05-16T11:44:09.108Z,21.40
2023-05-16T11:46:58.573Z,21.40
2023-05-16T11:49:51.506Z,21.30
2023-05-16T11:52:38.075Z,21.10
2023-05-16T11:55:32.228Z,21.10
2023-05-16T11:58:20.445Z,21.00
2023-05-16T12:00:57.073Z,20.90
2023-05-16T12:03:34.565Z,20.90
2023-05-16T12:06:34.611Z,20.90
2023-05-16T12:09:12.535Z,20.80
2023-05-16T12:11:56.555Z,20.70
2023-05-16T12:17:23.157Z,20.70
2023-05-16T12:20:06.639Z,20.50
2023-05-16T12:22:47.626Z,20.40
2023-05-16T12:26:04.290Z,20.20
2023-05-16T12:44:21.377Z,19.40
2023-05-16T12:46:59.885Z,19.40
2023-05-16T12:49:45.922Z,19.30
2023-05-16T12:52:21.129Z,19.30
2023-05-16T12:57:57.248Z,19.20
2023-05-16T13:00:39.260Z,19.20
2023-05-16T13:03:22.529Z,19.10
2023-05-16T13:06:02.584Z,19.00
2023-05-16T13:08:40.105Z,19.00
2023-05-16T13:14:10.874Z,18.90
2023-05-16T13:16:49.965Z,18.90
2023-05-16T13:19:29.333Z,18.70
2023-05-16T13:22:11.844Z,18.60
2023-05-16T13:24:47.450Z,18.50
2023-05-16T13:27:26.361Z,18.40
2023-05-16T13:30:03.347Z,18.30
2023-05-16T13:32:44.134Z,18.20
2023-05-16T13:35:22.232Z,18.10
2023-05-16T13:38:01.632Z,18.00
2023-05-16T13:40:46.555Z,17.90
2023-05-16T13:43:20.666Z,17.90
2023-05-16T13:45:56.983Z,17.80
2023-05-16T13:48:40.156Z,17.70
2023-05-16T13:51:20.612Z,17.70
2023-05-16T13:54:00.221Z,17.60
2023-05-16T13:56:39.923Z,17.50
2023-05-16T13:59:32.016Z,17.50
2023-05-16T14:02:15.357Z,17.30
2023-05-16T14:04:56.809Z,17.20
2023-05-16T14:07:36.786Z,17.20
2023-05-16T14:10:17.047Z,17.20
2023-05-16T14:12:55.425Z,17.10
2023-05-16T14:15:30.092Z,17.00
2023-05-16T14:18:08.080Z,17.00
2023-05-16T14:20:48.248Z,16.90
2023-05-16T14:23:25.542Z,16.80
2023-05-16T14:26:00.554Z,16.70
2023-05-16T14:28:36.817Z,16.60
2023-05-16T14:31:15.092Z,16.50
2023-05-16T14:33:49.792Z,16.40
2023-05-16T14:36:32.282Z,16.20
2023-05-16T14:39:17.628Z,16.10
2023-05-16T14:41:59.094Z,16.10
2023-05-16T14:44:39.145Z,16.10
2023-05-16T14:47:24.102Z,16.10
2023-05-16T14:50:00.425Z,16.00
2023-05-16T14:52:47.177Z,16.10
2023-05-16T14:55:25.980Z,16.10
2023-05-16T14:58:05.899Z,16.10
2023-05-16T15:00:41.218Z,16.10
2023-05-16T15:03:19.594Z,16.00
2023-05-16T15:06:00.847Z,16.00
2023-05-16T15:08:43.025Z,15.90
2023-05-16T15:11:18.537Z,15.90
2023-05-16T15:13:58.780Z,15.90
2023-05-16T15:16:35.146Z,15.90
2023-05-16T15:19:12.134Z,15.80
2023-05-16T15:21:53.984Z,15.80
2023-05-16T15:24:37.193Z,15.80
2023-05-16T15:27:23.231Z,15.80
2023-05-16T15:29:58.884Z,15.80
2023-05-16T15:32:35.045Z,15.80
2023-05-16T15:35:13.416Z,15.70
2023-05-16T15:37:49.821Z,15.70
2023-05-16T15:40:32.730Z,15.60
2023-05-16T15:43:10.769Z,15.50
2023-05-16T15:45:50.001Z,15.40
2023-05-16T15:48:29.669Z,15.30
2023-05-16T15:51:07.966Z,15.30
2023-05-16T15:53:47.372Z,15.20
2023-05-16T15:56:27.877Z,15.10
2023-05-16T15:59:12.193Z,15.10
2023-05-16T16:01:49.505Z,15.10
2023-05-16T16:04:32.687Z,15.00
2023-05-16T16:07:10.486Z,14.90
2023-05-16T16:09:49.514Z,14.90
2023-05-16T16:12:29.518Z,14.90
2023-05-16T16:15:09.238Z,15.00
2023-05-16T16:17:49.982Z,14.90
2023-05-16T16:20:35.215Z,14.90
2023-05-16T16:23:12.602Z,14.90
2023-05-16T16:25:51.395Z,14.80
2023-05-16T16:28:33.535Z,14.80
2023-05-16T16:31:10.364Z,14.70
2023-05-16T16:33:45.860Z,14.70
2023-05-16T16:36:24.473Z,14.70
2023-05-16T16:38:59.384Z,14.70
2023-05-16T16:41:36.408Z,14.70
2023-05-16T16:44:18.009Z,14.70
2023-05-16T16:46:52.762Z,14.60
2023-05-16T16:49:32.093Z,14.60
2023-05-16T16:52:09.710Z,14.60
2023-05-16T16:54:47.126Z,14.50
2023-05-16T16:57:24.890Z,14.50
2023-05-16T17:00:06.841Z,14.40
2023-05-16T17:02:44.652Z,14.40
2023-05-16T17:05:21.323Z,14.40
2023-05-16T17:07:58.999Z,14.30
2023-05-16T17:10:34.424Z,14.30
2023-05-16T17:13:12.960Z,14.30
2023-05-16T17:15:54.068Z,14.30
2023-05-16T17:18:28.815Z,14.20
2023-05-16T17:21:05.674Z,14.20
2023-05-16T17:23:44.134Z,14.10
2023-05-16T17:26:23.511Z,14.10
2023-05-16T17:29:01.043Z,14.10
2023-05-16T17:31:40.329Z,14.10
2023-05-16T17:34:16.482Z,14.00
2023-05-16T17:36:52.799Z,13.90
2023-05-16T17:39:31.195Z,13.90
2023-05-16T17:42:07.938Z,13.90
2023-05-16T17:44:47.474Z,13.90
2023-05-16T17:47:30.723Z,13.70
2023-05-16T17:50:09.758Z,13.80
2023-05-16T17:52:53.971Z,13.80
2023-05-16T17:55:30.808Z,13.70
2023-05-16T17:58:10.353Z,13.70
2023-05-16T18:00:49.317Z,13.70
2023-05-16T18:03:31.407Z,13.60
2023-05-16T18:06:08.339Z,13.60
2023-05-16T18:08:52.657Z,13.50
2023-05-16T18:11:31.045Z,13.40
2023-05-16T18:14:15.518Z,13.50
2023-05-16T18:16:54.772Z,13.40
2023-05-16T18:19:39.449Z,13.40
2023-05-16T18:22:25.063Z,13.30
2023-05-16T18:25:21.356Z,13.20
2023-05-16T18:28:06.857Z,13.20
2023-05-16T18:30:41.847Z,13.10
2023-05-16T18:33:24.548Z,13.10
2023-05-16T18:43:19.454Z,12.90
2023-05-16T18:46:03.761Z,12.90
2023-05-16T18:49:00.511Z,12.80
2023-05-16T18:51:45.534Z,12.80
2023-05-16T18:54:34.500Z,12.80
2023-05-16T18:57:25.060Z,12.70
2023-05-16T19:00:03.542Z,12.80
2023-05-16T19:02:53.688Z,12.80
2023-05-16T19:05:38.976Z,12.80
2023-05-16T19:08:52.063Z,12.70
2023-05-16T19:11:30.456Z,12.70
2023-05-16T19:14:10.311Z,12.70
2023-05-16T19:16:47.820Z,12.70
2023-05-16T19:22:32.166Z,12.60
2023-05-16T19:25:20.632Z,12.60
2023-05-16T19:28:12.601Z,12.70
2023-05-16T19:33:48.116Z,12.70
2023-05-16T19:36:27.536Z,12.70
2023-05-16T19:39:19.388Z,12.60
2023-05-16T19:42:11.375Z,12.60
2023-05-16T19:44:47.559Z,12.60
2023-05-16T19:47:36.410Z,12.60
2023-05-16T19:50:11.214Z,12.60
2023-05-16T19:52:50.229Z,12.60
2023-05-16T19:55:35.769Z,12.50
2023-05-16T19:58:29.836Z,12.50
2023-05-16T20:01:18.051Z,12.60
2023-05-16T20:04:01.963Z,12.50
2023-05-16T20:06:51.957Z,12.50
2023-05-16T20:12:35.583Z,12.40
2023-05-16T20:15:27.266Z,12.40
2023-05-16T20:18:07.862Z,12.40
2023-05-16T20:20:51.319Z,12.20
2023-05-16T20:30:01.355Z,12.20
2023-05-16T20:33:09.865Z,12.10
2023-05-16T20:36:03.941Z,12.10
2023-05-16T20:38:46.904Z,12.10
2023-05-16T20:41:26.914Z,12.10
2023-05-16T20:44:08.307Z,12.10
2023-05-16T20:46:48.385Z,12.10
2023-05-16T20:49:29.263Z,12.00
2023-05-16T20:52:16.798Z,12.00
2023-05-16T20:55:08.345Z,12.00
2023-05-16T20:57:44.550Z,12.00
2023-05-16T21:00:21.417Z,12.00
2023-05-16T21:03:01.677Z,12.00
2023-05-16T21:05:37.307Z,11.90
2023-05-16T21:08:18.597Z,11.90
2023-05-16T21:11:04.139Z,12.00
2023-05-16T21:13:41.414Z,11.90
2023-05-16T21:16:18.445Z,12.00
2023-05-16T21:18:58.863Z,12.00
2023-05-16T21:21:39.628Z,11.90
2023-05-16T21:24:17.450Z,11.90
2023-05-16T21:26:56.557Z,11.90
2023-05-16T21:29:34.509Z,11.90
2023-05-16T21:32:10.562Z,11.90
2023-05-16T21:34:51.119Z,11.90
2023-05-16T21:37:30.572Z,11.90
2023-05-16T21:40:09.662Z,11.90
2023-05-16T21:42:54.124Z,11.90
2023-05-16T21:45:32.218Z,11.90
2023-05-16T21:48:09.786Z,11.90
2023-05-16T21:50:45.809Z,11.90
2023-05-16T21:53:20.630Z,11.90
2023-05-16T21:56:00.096Z,11.90
2023-05-16T21:58:42.904Z,11.90
2023-05-16T22:01:26.155Z,11.80
2023-05-16T22:04:01.270Z,11.80
2023-05-16T22:06:38.664Z,11.80
2023-05-16T22:09:15.923Z,11.80
2023-05-16T22:11:53.653Z,11.80
2023-05-16T22:14:33.246Z,11.90
2023-05-16T22:17:12.165Z,11.80
2023-05-16T22:19:50.249Z,11.80
2023-05-16T22:22:30.620Z,11.70
2023-05-16T22:25:11.745Z,11.80
2023-05-16T22:28:30.505Z,11.70
2023-05-16T22:31:53.539Z,11.70
2023-05-16T22:41:02.319Z,11.60
2023-05-16T22:43:36.655Z,11.60
2023-05-16T22:46:12.858Z,11.60
2023-05-16T22:48:56.962Z,11.60
2023-05-16T22:51:39.297Z,11.60
2023-05-16T22:54:20.401Z,11.60
2023-05-16T22:56:57.097Z,11.60
2023-05-16T22:59:35.018Z,11.60
2023-05-16T23:02:12.649Z,11.60
2023-05-16T23:04:52.468Z,11.60
2023-05-16T23:07:34.968Z,11.50
2023-05-16T23:10:17.234Z,11.50
2023-05-16T23:12:53.006Z,11.50
2023-05-16T23:15:30.513Z,11.50
2023-05-16T23:18:23.347Z,11.50
2023-05-16T23:20:54.681Z,11.50
2023-05-16T23:23:39.070Z,11.50
2023-05-16T23:26:26.097Z,11.50
2023-05-16T23:29:15.594Z,11.50
2023-05-16T23:32:05.494Z,11.50
2023-05-16T23:34:50.701Z,11.50
2023-05-16T23:40:48.225Z,11.40
2023-05-16T23:43:32.326Z,11.40
2023-05-16T23:46:12.973Z,11.40
2023-05-16T23:51:57.662Z,11.30
2023-05-16T23:54:47.757Z,11.30
2023-05-16T23:57:31.281Z,11.20
